sensor_id;sensor_type;location;lat;lon;timestamp;P1;durP1;ratioP1;P2;durP2;ratioP2
9160;SDS011;4615;51.340;8.288;2023-05-10T00:02:09;3.80;;;3.50;;
9160;SDS011;4615;51.340;8.288;2023-05-10T00:04:35;3.85;;;3.45;;
9160;SDS011;4615;51.340;8.288;2023-05-10T00:07:01;3.95;;;3.65;;
9160;SDS011;4615;51.340;8.288;2023-05-10T00:09:28;4.80;;;3.50;;
9160;SDS011;4615;51.340;8.288;2023-05-10T00:11:54;4.18;;;3.30;;
9160;SDS011;4615;51.340;8.288;2023-05-10T00:14:24;3.40;;;3.10;;
9160;SDS011;4615;51.340;8.288;2023-05-10T00:16:51;3.70;;;3.38;;
9160;SDS011;4615;51.340;8.288;2023-05-10T00:19:17;3.83;;;3.53;;
9160;SDS011;4615;51.340;8.288;2023-05-10T00:21:43;4.80;;;3.95;;
9160;SDS011;4615;51.340;8.288;2023-05-10T00:24:10;3.15;;;2.95;;
9160;SDS011;4615;51.340;8.288;2023-05-10T00:26:36;3.38;;;3.00;;
9160;SDS011;4615;51.340;8.288;2023-05-10T00:29:03;3.10;;;2.90;;
9160;SDS011;4615;51.340;8.288;2023-05-10T00:31:30;2.72;;;2.53;;
9160;SDS011;4615;51.340;8.288;2023-05-10T00:33:57;2.80;;;1.77;;
9160;SDS011;4615;51.340;8.288;2023-05-10T00:36:23;1.92;;;1.30;;
9160;SDS011;4615;51.340;8.288;2023-05-10T00:38:49;1.55;;;1.40;;
9160;SDS011;4615;51.340;8.288;2023-05-10T00:41:16;1.60;;;1.40;;
9160;SDS011;4615;51.340;8.288;2023-05-10T00:43:42;1.88;;;1.40;;
9160;SDS011;4615;51.340;8.288;2023-05-10T00:46:09;2.53;;;1.30;;
9160;SDS011;4615;51.340;8.288;2023-05-10T00:48:37;3.00;;;1.20;;
9160;SDS011;4615;51.340;8.288;2023-05-10T00:51:03;1.30;;;1.20;;
9160;SDS011;4615;51.340;8.288;2023-05-10T00:53:31;1.27;;;1.00;;
9160;SDS011;4615;51.340;8.288;2023-05-10T00:55:57;1.35;;;0.88;;
9160;SDS011;4615;51.340;8.288;2023-05-10T00:58:24;0.90;;;0.90;;
9160;SDS011;4615;51.340;8.288;2023-05-10T01:00:53;0.93;;;0.93;;
9160;SDS011;4615;51.340;8.288;2023-05-10T01:03:20;1.00;;;0.90;;
9160;SDS011;4615;51.340;8.288;2023-05-10T01:05:48;1.40;;;0.90;;
9160;SDS011;4615;51.340;8.288;2023-05-10T01:08:14;0.80;;;0.80;;
9160;SDS011;4615;51.340;8.288;2023-05-10T01:10:41;1.20;;;0.90;;
9160;SDS011;4615;51.340;8.288;2023-05-10T01:13:08;1.40;;;0.82;;
9160;SDS011;4615;51.340;8.288;2023-05-10T01:15:35;1.20;;;0.88;;
9160;SDS011;4615;51.340;8.288;2023-05-10T01:18:01;0.80;;;0.68;;
9160;SDS011;4615;51.340;8.288;2023-05-10T01:20:29;0.82;;;0.80;;
9160;SDS011;4615;51.340;8.288;2023-05-10T01:23:04;0.80;;;0.80;;
9160;SDS011;4615;51.340;8.288;2023-05-10T01:25:43;0.80;;;0.73;;
9160;SDS011;4615;51.340;8.288;2023-05-10T01:31:12;1.93;;;1.00;;
9160;SDS011;4615;51.340;8.288;2023-05-10T01:33:45;0.80;;;0.80;;
9160;SDS011;4615;51.340;8.288;2023-05-10T01:36:15;1.05;;;0.75;;
9160;SDS011;4615;51.340;8.288;2023-05-10T01:38:51;1.05;;;0.98;;
9160;SDS011;4615;51.340;8.288;2023-05-10T01:41:19;1.10;;;0.80;;
9160;SDS011;4615;51.340;8.288;2023-05-10T01:43:49;1.35;;;0.70;;
9160;SDS011;4615;51.340;8.288;2023-05-10T01:46:20;0.80;;;0.80;;
9160;SDS011;4615;51.340;8.288;2023-05-10T01:48:51;0.60;;;0.60;;
9160;SDS011;4615;51.340;8.288;2023-05-10T01:51:19;2.03;;;0.80;;
9160;SDS011;4615;51.340;8.288;2023-05-10T01:53:47;1.23;;;0.75;;
9160;SDS011;4615;51.340;8.288;2023-05-10T01:56:14;1.30;;;0.80;;
9160;SDS011;4615;51.340;8.288;2023-05-10T01:58:42;0.60;;;0.60;;
9160;SDS011;4615;51.340;8.288;2023-05-10T02:01:10;0.63;;;0.63;;
9160;SDS011;4615;51.340;8.288;2023-05-10T02:03:37;0.77;;;0.70;;
9160;SDS011;4615;51.340;8.288;2023-05-10T02:06:06;0.60;;;0.60;;
9160;SDS011;4615;51.340;8.288;2023-05-10T02:08:33;0.60;;;0.60;;
9160;SDS011;4615;51.340;8.288;2023-05-10T02:11:01;1.40;;;0.70;;
9160;SDS011;4615;51.340;8.288;2023-05-10T02:13:29;2.55;;;0.85;;
9160;SDS011;4615;51.340;8.288;2023-05-10T02:15:55;0.85;;;0.60;;
9160;SDS011;4615;51.340;8.288;2023-05-10T02:18:23;0.80;;;0.80;;
9160;SDS011;4615;51.340;8.288;2023-05-10T02:20:50;0.90;;;0.90;;
9160;SDS011;4615;51.340;8.288;2023-05-10T02:23:20;0.80;;;0.80;;
9160;SDS011;4615;51.340;8.288;2023-05-10T02:25:47;1.40;;;1.30;;
9160;SDS011;4615;51.340;8.288;2023-05-10T02:28:14;0.80;;;0.80;;
9160;SDS011;4615;51.340;8.288;2023-05-10T02:30:40;1.17;;;0.80;;
9160;SDS011;4615;51.340;8.288;2023-05-10T02:33:07;0.88;;;0.88;;
9160;SDS011;4615;51.340;8.288;2023-05-10T02:35:34;0.93;;;0.90;;
9160;SDS011;4615;51.340;8.288;2023-05-10T02:38:01;1.70;;;1.00;;
9160;SDS011;4615;51.340;8.288;2023-05-10T02:40:29;0.80;;;0.80;;
9160;SDS011;4615;51.340;8.288;2023-05-10T02:42:56;0.80;;;0.80;;
9160;SDS011;4615;51.340;8.288;2023-05-10T02:45:24;1.15;;;0.90;;
9160;SDS011;4615;51.340;8.288;2023-05-10T02:47:53;2.72;;;1.00;;
9160;SDS011;4615;51.340;8.288;2023-05-10T02:50:19;1.48;;;0.85;;
9160;SDS011;4615;51.340;8.288;2023-05-10T02:52:46;1.00;;;0.90;;
9160;SDS011;4615;51.340;8.288;2023-05-10T02:55:14;1.00;;;0.90;;
9160;SDS011;4615;51.340;8.288;2023-05-10T02:57:43;1.15;;;1.05;;
9160;SDS011;4615;51.340;8.288;2023-05-10T03:00:12;1.20;;;1.20;;
9160;SDS011;4615;51.340;8.288;2023-05-10T03:02:39;1.17;;;1.17;;
9160;SDS011;4615;51.340;8.288;2023-05-10T03:05:05;1.40;;;1.30;;
9160;SDS011;4615;51.340;8.288;2023-05-10T03:07:32;2.60;;;1.40;;
9160;SDS011;4615;51.340;8.288;2023-05-10T03:09:59;1.55;;;1.45;;
9160;SDS011;4615;51.340;8.288;2023-05-10T03:12:27;2.03;;;1.60;;
9160;SDS011;4615;51.340;8.288;2023-05-10T03:15:00;2.20;;;1.80;;
9160;SDS011;4615;51.340;8.288;2023-05-10T03:17:29;1.85;;;1.70;;
9160;SDS011;4615;51.340;8.288;2023-05-10T03:19:56;1.90;;;1.80;;
9160;SDS011;4615;51.340;8.288;2023-05-10T03:22:24;1.98;;;1.80;;
9160;SDS011;4615;51.340;8.288;2023-05-10T03:24:51;1.90;;;1.80;;
9160;SDS011;4615;51.340;8.288;2023-05-10T03:27:19;2.50;;;1.98;;
9160;SDS011;4615;51.340;8.288;2023-05-10T03:29:46;2.15;;;1.95;;
9160;SDS011;4615;51.340;8.288;2023-05-10T03:32:14;2.30;;;2.10;;
9160;SDS011;4615;51.340;8.288;2023-05-10T03:34:41;2.20;;;2.07;;
9160;SDS011;4615;51.340;8.288;2023-05-10T03:37:08;2.75;;;2.08;;
9160;SDS011;4615;51.340;8.288;2023-05-10T03:39:34;2.00;;;1.90;;
9160;SDS011;4615;51.340;8.288;2023-05-10T03:42:01;2.13;;;1.92;;
9160;SDS011;4615;51.340;8.288;2023-05-10T03:44:27;2.25;;;1.98;;
9160;SDS011;4615;51.340;8.288;2023-05-10T03:46:53;2.00;;;1.80;;
9160;SDS011;4615;51.340;8.288;2023-05-10T03:49:22;2.47;;;2.28;;
9160;SDS011;4615;51.340;8.288;2023-05-10T03:51:48;2.30;;;2.10;;
9160;SDS011;4615;51.340;8.288;2023-05-10T03:54:15;2.40;;;2.20;;
9160;SDS011;4615;51.340;8.288;2023-05-10T03:56:41;2.60;;;2.40;;
9160;SDS011;4615;51.340;8.288;2023-05-10T03:59:07;2.50;;;2.30;;
9160;SDS011;4615;51.340;8.288;2023-05-10T04:01:34;2.63;;;2.40;;
9160;SDS011;4615;51.340;8.288;2023-05-10T04:04:00;3.20;;;2.50;;
9160;SDS011;4615;51.340;8.288;2023-05-10T04:06:28;4.13;;;2.70;;
9160;SDS011;4615;51.340;8.288;2023-05-10T04:08:54;2.70;;;2.50;;
9160;SDS011;4615;51.340;8.288;2023-05-10T04:11:21;2.57;;;2.37;;
9160;SDS011;4615;51.340;8.288;2023-05-10T04:13:48;2.70;;;2.50;;
9160;SDS011;4615;51.340;8.288;2023-05-10T04:16:14;2.58;;;2.38;;
9160;SDS011;4615;51.340;8.288;2023-05-10T04:18:40;2.90;;;2.70;;
9160;SDS011;4615;51.340;8.288;2023-05-10T04:21:10;2.95;;;2.75;;
9160;SDS011;4615;51.340;8.288;2023-05-10T04:23:38;2.97;;;2.75;;
9160;SDS011;4615;51.340;8.288;2023-05-10T04:26:05;2.80;;;2.55;;
9160;SDS011;4615;51.340;8.288;2023-05-10T04:28:32;3.20;;;2.80;;
9160;SDS011;4615;51.340;8.288;2023-05-10T04:31:01;3.25;;;2.97;;
9160;SDS011;4615;51.340;8.288;2023-05-10T04:33:28;2.93;;;2.73;;
9160;SDS011;4615;51.340;8.288;2023-05-10T04:35:54;3.10;;;2.60;;
9160;SDS011;4615;51.340;8.288;2023-05-10T04:38:21;2.95;;;2.75;;
9160;SDS011;4615;51.340;8.288;2023-05-10T04:40:49;3.20;;;3.00;;
9160;SDS011;4615;51.340;8.288;2023-05-10T04:43:15;3.05;;;2.75;;
9160;SDS011;4615;51.340;8.288;2023-05-10T04:45:41;3.40;;;3.10;;
9160;SDS011;4615;51.340;8.288;2023-05-10T04:48:08;4.55;;;3.08;;
9160;SDS011;4615;51.340;8.288;2023-05-10T04:50:34;4.00;;;3.30;;
9160;SDS011;4615;51.340;8.288;2023-05-10T04:53:01;3.50;;;3.20;;
9160;SDS011;4615;51.340;8.288;2023-05-10T04:55:28;3.97;;;3.35;;
9160;SDS011;4615;51.340;8.288;2023-05-10T04:57:55;3.50;;;3.20;;
9160;SDS011;4615;51.340;8.288;2023-05-10T05:00:24;3.03;;;2.72;;
9160;SDS011;4615;51.340;8.288;2023-05-10T05:02:50;3.58;;;2.80;;
9160;SDS011;4615;51.340;8.288;2023-05-10T05:05:16;3.80;;;3.50;;
9160;SDS011;4615;51.340;8.288;2023-05-10T05:07:43;3.38;;;3.08;;
9160;SDS011;4615;51.340;8.288;2023-05-10T05:10:09;3.75;;;3.38;;
9160;SDS011;4615;51.340;8.288;2023-05-10T05:12:36;3.83;;;3.58;;
9160;SDS011;4615;51.340;8.288;2023-05-10T05:15:04;3.50;;;3.20;;
9160;SDS011;4615;51.340;8.288;2023-05-10T05:17:30;4.30;;;3.80;;
9160;SDS011;4615;51.340;8.288;2023-05-10T05:19:57;4.78;;;4.15;;
9160;SDS011;4615;51.340;8.288;2023-05-10T05:22:23;3.53;;;3.28;;
9160;SDS011;4615;51.340;8.288;2023-05-10T05:24:52;3.35;;;3.05;;
9160;SDS011;4615;51.340;8.288;2023-05-10T05:27:19;3.33;;;3.03;;
9160;SDS011;4615;51.340;8.288;2023-05-10T05:29:47;3.17;;;2.65;;
9160;SDS011;4615;51.340;8.288;2023-05-10T05:32:15;2.60;;;2.38;;
9160;SDS011;4615;51.340;8.288;2023-05-10T05:34:41;2.28;;;2.08;;
9160;SDS011;4615;51.340;8.288;2023-05-10T05:37:08;2.10;;;1.90;;
9160;SDS011;4615;51.340;8.288;2023-05-10T05:39:41;2.20;;;2.00;;
9160;SDS011;4615;51.340;8.288;2023-05-10T05:42:07;3.30;;;2.05;;
9160;SDS011;4615;51.340;8.288;2023-05-10T05:44:34;2.10;;;1.90;;
9160;SDS011;4615;51.340;8.288;2023-05-10T05:47:00;3.05;;;2.15;;
9160;SDS011;4615;51.340;8.288;2023-05-10T05:49:28;2.42;;;2.22;;
9160;SDS011;4615;51.340;8.288;2023-05-10T05:51:58;2.60;;;2.20;;
9160;SDS011;4615;51.340;8.288;2023-05-10T05:54:24;2.85;;;2.55;;
9160;SDS011;4615;51.340;8.288;2023-05-10T05:56:53;3.83;;;2.60;;
9160;SDS011;4615;51.340;8.288;2023-05-10T05:59:19;3.55;;;2.60;;
9160;SDS011;4615;51.340;8.288;2023-05-10T06:01:45;2.97;;;2.67;;
9160;SDS011;4615;51.340;8.288;2023-05-10T06:04:12;3.35;;;2.70;;
9160;SDS011;4615;51.340;8.288;2023-05-10T06:06:40;2.42;;;2.22;;
9160;SDS011;4615;51.340;8.288;2023-05-10T06:09:07;2.60;;;2.40;;
9160;SDS011;4615;51.340;8.288;2023-05-10T06:11:33;2.10;;;1.90;;
9160;SDS011;4615;51.340;8.288;2023-05-10T06:14:00;4.63;;;2.00;;
9160;SDS011;4615;51.340;8.288;2023-05-10T06:16:26;2.15;;;1.90;;
9160;SDS011;4615;51.340;8.288;2023-05-10T06:18:53;2.97;;;2.13;;
9160;SDS011;4615;51.340;8.288;2023-05-10T06:21:20;2.60;;;2.30;;
9160;SDS011;4615;51.340;8.288;2023-05-10T06:23:48;2.33;;;2.13;;
9160;SDS011;4615;51.340;8.288;2023-05-10T06:26:14;2.17;;;2.00;;
9160;SDS011;4615;51.340;8.288;2023-05-10T06:28:41;3.40;;;2.30;;
9160;SDS011;4615;51.340;8.288;2023-05-10T06:31:07;2.90;;;2.30;;
9160;SDS011;4615;51.340;8.288;2023-05-10T06:33:34;3.80;;;3.00;;
9160;SDS011;4615;51.340;8.288;2023-05-10T06:36:00;3.47;;;3.05;;
9160;SDS011;4615;51.340;8.288;2023-05-10T06:38:26;2.70;;;2.50;;
9160;SDS011;4615;51.340;8.288;2023-05-10T06:40:54;3.90;;;3.33;;
9160;SDS011;4615;51.340;8.288;2023-05-10T06:43:21;4.15;;;3.75;;
9160;SDS011;4615;51.340;8.288;2023-05-10T06:45:47;4.00;;;3.67;;
9160;SDS011;4615;51.340;8.288;2023-05-10T06:48:13;4.88;;;3.65;;
9160;SDS011;4615;51.340;8.288;2023-05-10T06:50:40;4.82;;;3.67;;
9160;SDS011;4615;51.340;8.288;2023-05-10T06:53:06;3.67;;;3.38;;
9160;SDS011;4615;51.340;8.288;2023-05-10T06:55:33;6.35;;;3.83;;
9160;SDS011;4615;51.340;8.288;2023-05-10T06:58:00;4.18;;;3.78;;
9160;SDS011;4615;51.340;8.288;2023-05-10T07:00:27;5.03;;;3.88;;
9160;SDS011;4615;51.340;8.288;2023-05-10T07:02:53;5.07;;;3.90;;
9160;SDS011;4615;51.340;8.288;2023-05-10T07:05:20;4.25;;;3.85;;
9160;SDS011;4615;51.340;8.288;2023-05-10T07:07:46;5.60;;;4.00;;
9160;SDS011;4615;51.340;8.288;2023-05-10T07:10:13;5.15;;;4.65;;
9160;SDS011;4615;51.340;8.288;2023-05-10T07:12:39;5.60;;;4.13;;
9160;SDS011;4615;51.340;8.288;2023-05-10T07:15:08;5.93;;;4.38;;
9160;SDS011;4615;51.340;8.288;2023-05-10T07:17:35;6.20;;;4.63;;
9160;SDS011;4615;51.340;8.288;2023-05-10T07:20:01;5.18;;;4.65;;
9160;SDS011;4615;51.340;8.288;2023-05-10T07:22:29;6.35;;;4.78;;
9160;SDS011;4615;51.340;8.288;2023-05-10T07:24:55;4.60;;;4.07;;
9160;SDS011;4615;51.340;8.288;2023-05-10T07:27:22;6.03;;;5.13;;
9160;SDS011;4615;51.340;8.288;2023-05-10T07:29:48;5.20;;;4.70;;
9160;SDS011;4615;51.340;8.288;2023-05-10T07:32:16;6.65;;;5.28;;
9160;SDS011;4615;51.340;8.288;2023-05-10T07:34:42;6.40;;;5.68;;
9160;SDS011;4615;51.340;8.288;2023-05-10T07:37:08;9.07;;;7.80;;
9160;SDS011;4615;51.340;8.288;2023-05-10T07:39:35;8.88;;;8.07;;
9160;SDS011;4615;51.340;8.288;2023-05-10T07:42:02;8.98;;;8.07;;
9160;SDS011;4615;51.340;8.288;2023-05-10T07:44:28;8.75;;;7.85;;
9160;SDS011;4615;51.340;8.288;2023-05-10T07:46:55;9.40;;;8.50;;
9160;SDS011;4615;51.340;8.288;2023-05-10T07:49:23;9.50;;;8.30;;
9160;SDS011;4615;51.340;8.288;2023-05-10T07:51:50;10.02;;;9.02;;
9160;SDS011;4615;51.340;8.288;2023-05-10T07:54:16;10.43;;;9.38;;
9160;SDS011;4615;51.340;8.288;2023-05-10T07:56:43;10.55;;;9.55;;
9160;SDS011;4615;51.340;8.288;2023-05-10T07:59:14;11.75;;;10.30;;
9160;SDS011;4615;51.340;8.288;2023-05-10T08:01:41;11.70;;;10.50;;
9160;SDS011;4615;51.340;8.288;2023-05-10T08:04:08;12.20;;;10.90;;
9160;SDS011;4615;51.340;8.288;2023-05-10T08:06:36;11.80;;;10.60;;
9160;SDS011;4615;51.340;8.288;2023-05-10T08:09:02;11.32;;;10.25;;
9160;SDS011;4615;51.340;8.288;2023-05-10T08:11:29;12.00;;;10.80;;
9160;SDS011;4615;51.340;8.288;2023-05-10T08:13:55;12.55;;;11.25;;
9160;SDS011;4615;51.340;8.288;2023-05-10T08:16:21;12.20;;;11.00;;
9160;SDS011;4615;51.340;8.288;2023-05-10T08:18:48;10.93;;;9.50;;
9160;SDS011;4615;51.340;8.288;2023-05-10T08:21:15;10.07;;;9.07;;
9160;SDS011;4615;51.340;8.288;2023-05-10T08:23:43;9.38;;;8.48;;
9160;SDS011;4615;51.340;8.288;2023-05-10T08:26:10;11.13;;;8.00;;
9160;SDS011;4615;51.340;8.288;2023-05-10T08:28:36;9.20;;;8.30;;
9160;SDS011;4615;51.340;8.288;2023-05-10T08:31:03;9.88;;;8.88;;
9160;SDS011;4615;51.340;8.288;2023-05-10T08:33:30;8.85;;;7.90;;
9160;SDS011;4615;51.340;8.288;2023-05-10T08:35:56;8.93;;;8.00;;
9160;SDS011;4615;51.340;8.288;2023-05-10T08:38:23;9.05;;;8.05;;
9160;SDS011;4615;51.340;8.288;2023-05-10T08:40:51;8.70;;;7.80;;
9160;SDS011;4615;51.340;8.288;2023-05-10T08:43:21;8.50;;;7.70;;
9160;SDS011;4615;51.340;8.288;2023-05-10T08:45:48;8.60;;;7.68;;
9160;SDS011;4615;51.340;8.288;2023-05-10T08:48:15;9.25;;;7.70;;
9160;SDS011;4615;51.340;8.288;2023-05-10T08:50:41;8.23;;;7.43;;
9160;SDS011;4615;51.340;8.288;2023-05-10T08:53:09;7.95;;;7.15;;
9160;SDS011;4615;51.340;8.288;2023-05-10T08:55:35;8.52;;;7.18;;
9160;SDS011;4615;51.340;8.288;2023-05-10T08:58:05;7.25;;;6.55;;
9160;SDS011;4615;51.340;8.288;2023-05-10T09:00:31;9.80;;;6.88;;
9160;SDS011;4615;51.340;8.288;2023-05-10T09:02:58;7.38;;;6.68;;
9160;SDS011;4615;51.340;8.288;2023-05-10T09:05:25;9.02;;;7.50;;
9160;SDS011;4615;51.340;8.288;2023-05-10T09:07:51;8.77;;;7.03;;
9160;SDS011;4615;51.340;8.288;2023-05-10T09:10:18;8.02;;;6.82;;
9160;SDS011;4615;51.340;8.288;2023-05-10T09:12:44;7.05;;;6.38;;
9160;SDS011;4615;51.340;8.288;2023-05-10T09:15:13;6.55;;;5.95;;
9160;SDS011;4615;51.340;8.288;2023-05-10T09:17:41;6.82;;;6.13;;
9160;SDS011;4615;51.340;8.288;2023-05-10T09:20:08;6.95;;;6.07;;
9160;SDS011;4615;51.340;8.288;2023-05-10T09:22:34;6.85;;;5.43;;
9160;SDS011;4615;51.340;8.288;2023-05-10T09:25:05;6.90;;;5.70;;
9160;SDS011;4615;51.340;8.288;2023-05-10T09:27:31;6.78;;;5.70;;
9160;SDS011;4615;51.340;8.288;2023-05-10T09:29:58;6.30;;;5.57;;
9160;SDS011;4615;51.340;8.288;2023-05-10T09:32:36;6.32;;;5.72;;
9160;SDS011;4615;51.340;8.288;2023-05-10T09:35:06;5.88;;;5.20;;
9160;SDS011;4615;51.340;8.288;2023-05-10T09:37:33;5.75;;;5.10;;
9160;SDS011;4615;51.340;8.288;2023-05-10T09:39:59;6.47;;;5.15;;
9160;SDS011;4615;51.340;8.288;2023-05-10T09:42:26;6.07;;;5.47;;
9160;SDS011;4615;51.340;8.288;2023-05-10T09:44:52;5.57;;;5.07;;
9160;SDS011;4615;51.340;8.288;2023-05-10T09:47:18;6.63;;;5.40;;
9160;SDS011;4615;51.340;8.288;2023-05-10T09:49:50;8.30;;;5.72;;
9160;SDS011;4615;51.340;8.288;2023-05-10T09:52:16;4.28;;;3.88;;
9160;SDS011;4615;51.340;8.288;2023-05-10T09:54:45;5.00;;;4.50;;
9160;SDS011;4615;51.340;8.288;2023-05-10T09:57:18;4.32;;;3.85;;
9160;SDS011;4615;51.340;8.288;2023-05-10T09:59:46;5.55;;;4.28;;
9160;SDS011;4615;51.340;8.288;2023-05-10T10:02:13;5.95;;;4.65;;
9160;SDS011;4615;51.340;8.288;2023-05-10T10:04:39;5.03;;;4.20;;
9160;SDS011;4615;51.340;8.288;2023-05-10T10:07:08;4.63;;;4.10;;
9160;SDS011;4615;51.340;8.288;2023-05-10T10:09:34;4.65;;;4.10;;
9160;SDS011;4615;51.340;8.288;2023-05-10T10:12:01;6.03;;;4.38;;
9160;SDS011;4615;51.340;8.288;2023-05-10T10:14:28;4.43;;;3.97;;
9160;SDS011;4615;51.340;8.288;2023-05-10T10:16:54;5.17;;;4.67;;
9160;SDS011;4615;51.340;8.288;2023-05-10T10:19:21;6.63;;;5.50;;
9160;SDS011;4615;51.340;8.288;2023-05-10T10:21:49;10.95;;;7.05;;
9160;SDS011;4615;51.340;8.288;2023-05-10T10:24:17;9.18;;;7.57;;
9160;SDS011;4615;51.340;8.288;2023-05-10T10:26:44;8.18;;;7.10;;
9160;SDS011;4615;51.340;8.288;2023-05-10T10:29:16;8.50;;;7.70;;
9160;SDS011;4615;51.340;8.288;2023-05-10T10:31:47;8.73;;;7.55;;
9160;SDS011;4615;51.340;8.288;2023-05-10T10:34:19;8.43;;;7.47;;
9160;SDS011;4615;51.340;8.288;2023-05-10T10:36:48;9.00;;;7.63;;
9160;SDS011;4615;51.340;8.288;2023-05-10T10:39:15;8.02;;;7.22;;
9160;SDS011;4615;51.340;8.288;2023-05-10T10:41:50;9.20;;;8.15;;
9160;SDS011;4615;51.340;8.288;2023-05-10T10:44:23;8.30;;;7.18;;
9160;SDS011;4615;51.340;8.288;2023-05-10T10:47:00;7.40;;;6.60;;
9160;SDS011;4615;51.340;8.288;2023-05-10T10:49:27;7.07;;;6.38;;
9160;SDS011;4615;51.340;8.288;2023-05-10T10:52:12;9.48;;;7.80;;
9160;SDS011;4615;51.340;8.288;2023-05-10T10:54:39;8.15;;;7.03;;
9160;SDS011;4615;51.340;8.288;2023-05-10T10:57:11;6.93;;;6.22;;
9160;SDS011;4615;51.340;8.288;2023-05-10T10:59:41;6.43;;;5.93;;
9160;SDS011;4615;51.340;8.288;2023-05-10T11:02:08;6.57;;;5.90;;
9160;SDS011;4615;51.340;8.288;2023-05-10T11:04:41;6.57;;;5.97;;
9160;SDS011;4615;51.340;8.288;2023-05-10T11:07:16;6.93;;;6.10;;
9160;SDS011;4615;51.340;8.288;2023-05-10T11:09:43;7.05;;;6.13;;
9160;SDS011;4615;51.340;8.288;2023-05-10T11:12:11;7.95;;;6.60;;
9160;SDS011;4615;51.340;8.288;2023-05-10T11:14:37;6.15;;;5.25;;
9160;SDS011;4615;51.340;8.288;2023-05-10T11:22:27;5.53;;;4.70;;
9160;SDS011;4615;51.340;8.288;2023-05-10T11:24:56;5.60;;;5.05;;
9160;SDS011;4615;51.340;8.288;2023-05-10T11:27:25;4.83;;;4.33;;
9160;SDS011;4615;51.340;8.288;2023-05-10T11:29:52;4.63;;;4.22;;
9160;SDS011;4615;51.340;8.288;2023-05-10T11:32:18;5.93;;;4.22;;
9160;SDS011;4615;51.340;8.288;2023-05-10T11:34:46;5.63;;;4.05;;
9160;SDS011;4615;51.340;8.288;2023-05-10T11:37:13;5.03;;;4.00;;
9160;SDS011;4615;51.340;8.288;2023-05-10T11:39:45;4.88;;;4.38;;
9160;SDS011;4615;51.340;8.288;2023-05-10T11:42:14;4.68;;;4.22;;
9160;SDS011;4615;51.340;8.288;2023-05-10T11:44:44;5.43;;;4.63;;
9160;SDS011;4615;51.340;8.288;2023-05-10T11:47:11;4.63;;;4.20;;
9160;SDS011;4615;51.340;8.288;2023-05-10T11:49:38;4.18;;;3.63;;
9160;SDS011;4615;51.340;8.288;2023-05-10T11:52:04;4.90;;;3.90;;
9160;SDS011;4615;51.340;8.288;2023-05-10T11:54:31;5.63;;;3.70;;
9160;SDS011;4615;51.340;8.288;2023-05-10T11:56:59;4.70;;;3.90;;
9160;SDS011;4615;51.340;8.288;2023-05-10T11:59:26;4.40;;;3.70;;
9160;SDS011;4615;51.340;8.288;2023-05-10T12:01:54;3.80;;;3.50;;
9160;SDS011;4615;51.340;8.288;2023-05-10T12:04:20;3.97;;;3.55;;
9160;SDS011;4615;51.340;8.288;2023-05-10T12:06:47;4.63;;;3.83;;
9160;SDS011;4615;51.340;8.288;2023-05-10T12:09:13;4.78;;;4.00;;
9160;SDS011;4615;51.340;8.288;2023-05-10T12:11:40;5.45;;;3.88;;
9160;SDS011;4615;51.340;8.288;2023-05-10T12:14:07;3.70;;;3.10;;
9160;SDS011;4615;51.340;8.288;2023-05-10T12:16:34;3.90;;;3.50;;
9160;SDS011;4615;51.340;8.288;2023-05-10T12:19:03;6.25;;;3.33;;
9160;SDS011;4615;51.340;8.288;2023-05-10T12:21:30;3.50;;;3.20;;
9160;SDS011;4615;51.340;8.288;2023-05-10T12:23:59;3.83;;;3.38;;
9160;SDS011;4615;51.340;8.288;2023-05-10T12:26:25;7.73;;;5.00;;
9160;SDS011;4615;51.340;8.288;2023-05-10T12:28:53;5.70;;;4.40;;
9160;SDS011;4615;51.340;8.288;2023-05-10T12:31:20;6.13;;;5.35;;
9160;SDS011;4615;51.340;8.288;2023-05-10T12:33:46;8.43;;;5.33;;
9160;SDS011;4615;51.340;8.288;2023-05-10T12:36:15;5.68;;;5.03;;
9160;SDS011;4615;51.340;8.288;2023-05-10T12:38:43;7.57;;;5.57;;
9160;SDS011;4615;51.340;8.288;2023-05-10T12:41:13;6.73;;;5.63;;
9160;SDS011;4615;51.340;8.288;2023-05-10T12:43:39;4.90;;;3.70;;
9160;SDS011;4615;51.340;8.288;2023-05-10T12:46:07;4.47;;;3.33;;
9160;SDS011;4615;51.340;8.288;2023-05-10T12:48:34;5.60;;;3.45;;
9160;SDS011;4615;51.340;8.288;2023-05-10T12:51:00;3.47;;;3.17;;
9160;SDS011;4615;51.340;8.288;2023-05-10T12:53:28;5.55;;;3.97;;
9160;SDS011;4615;51.340;8.288;2023-05-10T12:55:55;4.18;;;3.40;;
9160;SDS011;4615;51.340;8.288;2023-05-10T12:58:21;4.88;;;4.00;;
9160;SDS011;4615;51.340;8.288;2023-05-10T13:00:48;6.28;;;4.18;;
9160;SDS011;4615;51.340;8.288;2023-05-10T13:03:14;6.15;;;3.90;;
9160;SDS011;4615;51.340;8.288;2023-05-10T13:05:41;4.40;;;4.00;;
9160;SDS011;4615;51.340;8.288;2023-05-10T13:08:07;4.80;;;4.30;;
9160;SDS011;4615;51.340;8.288;2023-05-10T13:10:35;7.45;;;4.90;;
9160;SDS011;4615;51.340;8.288;2023-05-10T13:13:01;6.55;;;5.80;;
9160;SDS011;4615;51.340;8.288;2023-05-10T13:15:28;7.10;;;6.35;;
9160;SDS011;4615;51.340;8.288;2023-05-10T13:17:54;7.78;;;6.60;;
9160;SDS011;4615;51.340;8.288;2023-05-10T13:20:21;8.98;;;7.43;;
9160;SDS011;4615;51.340;8.288;2023-05-10T13:22:47;8.90;;;7.63;;
9160;SDS011;4615;51.340;8.288;2023-05-10T13:25:14;8.52;;;7.63;;
9160;SDS011;4615;51.340;8.288;2023-05-10T13:27:41;7.67;;;6.90;;
9160;SDS011;4615;51.340;8.288;2023-05-10T13:30:08;7.30;;;6.32;;
9160;SDS011;4615;51.340;8.288;2023-05-10T13:32:36;8.10;;;7.13;;
9160;SDS011;4615;51.340;8.288;2023-05-10T13:35:03;7.72;;;6.65;;
9160;SDS011;4615;51.340;8.288;2023-05-10T13:37:29;7.65;;;6.90;;
9160;SDS011;4615;51.340;8.288;2023-05-10T13:39:56;7.00;;;6.40;;
9160;SDS011;4615;51.340;8.288;2023-05-10T13:42:22;7.80;;;7.00;;
9160;SDS011;4615;51.340;8.288;2023-05-10T13:44:50;8.32;;;7.50;;
9160;SDS011;4615;51.340;8.288;2023-05-10T13:47:17;8.50;;;7.60;;
9160;SDS011;4615;51.340;8.288;2023-05-10T13:49:44;8.15;;;7.05;;
9160;SDS011;4615;51.340;8.288;2023-05-10T13:52:10;7.95;;;7.15;;
9160;SDS011;4615;51.340;8.288;2023-05-10T13:54:37;8.07;;;6.90;;
9160;SDS011;4615;51.340;8.288;2023-05-10T13:57:04;9.30;;;8.40;;
9160;SDS011;4615;51.340;8.288;2023-05-10T13:59:30;9.65;;;8.68;;
9160;SDS011;4615;51.340;8.288;2023-05-10T14:01:58;12.32;;;10.30;;
9160;SDS011;4615;51.340;8.288;2023-05-10T14:04:25;11.85;;;10.52;;
9160;SDS011;4615;51.340;8.288;2023-05-10T14:06:52;11.52;;;10.40;;
9160;SDS011;4615;51.340;8.288;2023-05-10T14:09:18;11.60;;;10.40;;
9160;SDS011;4615;51.340;8.288;2023-05-10T14:11:45;10.60;;;9.50;;
9160;SDS011;4615;51.340;8.288;2023-05-10T14:14:12;11.48;;;10.27;;
9160;SDS011;4615;51.340;8.288;2023-05-10T14:16:41;11.50;;;10.35;;
9160;SDS011;4615;51.340;8.288;2023-05-10T14:19:09;11.57;;;10.32;;
9160;SDS011;4615;51.340;8.288;2023-05-10T14:21:35;11.80;;;10.50;;
9160;SDS011;4615;51.340;8.288;2023-05-10T14:24:02;10.70;;;9.60;;
9160;SDS011;4615;51.340;8.288;2023-05-10T14:26:28;11.80;;;10.60;;
9160;SDS011;4615;51.340;8.288;2023-05-10T14:28:55;11.73;;;10.10;;
9160;SDS011;4615;51.340;8.288;2023-05-10T14:31:22;11.88;;;10.55;;
9160;SDS011;4615;51.340;8.288;2023-05-10T14:33:50;13.40;;;10.93;;
9160;SDS011;4615;51.340;8.288;2023-05-10T14:36:18;12.00;;;10.50;;
9160;SDS011;4615;51.340;8.288;2023-05-10T14:38:44;12.68;;;11.10;;
9160;SDS011;4615;51.340;8.288;2023-05-10T14:41:11;11.90;;;10.60;;
9160;SDS011;4615;51.340;8.288;2023-05-10T14:43:39;12.23;;;10.15;;
9160;SDS011;4615;51.340;8.288;2023-05-10T14:46:06;12.33;;;10.93;;
9160;SDS011;4615;51.340;8.288;2023-05-10T14:48:32;12.82;;;11.05;;
9160;SDS011;4615;51.340;8.288;2023-05-10T14:50:59;12.82;;;11.57;;
9160;SDS011;4615;51.340;8.288;2023-05-10T14:53:27;14.07;;;12.57;;
9160;SDS011;4615;51.340;8.288;2023-05-10T14:55:53;13.65;;;11.98;;
9160;SDS011;4615;51.340;8.288;2023-05-10T14:58:19;12.05;;;10.75;;
9160;SDS011;4615;51.340;8.288;2023-05-10T15:00:46;12.13;;;10.85;;
9160;SDS011;4615;51.340;8.288;2023-05-10T15:03:12;11.73;;;10.05;;
9160;SDS011;4615;51.340;8.288;2023-05-10T15:05:39;11.93;;;9.90;;
9160;SDS011;4615;51.340;8.288;2023-05-10T15:08:05;11.00;;;9.52;;
9160;SDS011;4615;51.340;8.288;2023-05-10T15:10:33;11.88;;;9.98;;
9160;SDS011;4615;51.340;8.288;2023-05-10T15:13:00;11.63;;;9.93;;
9160;SDS011;4615;51.340;8.288;2023-05-10T15:15:26;11.88;;;10.05;;
9160;SDS011;4615;51.340;8.288;2023-05-10T15:17:54;11.37;;;10.17;;
9160;SDS011;4615;51.340;8.288;2023-05-10T15:20:21;12.15;;;10.85;;
9160;SDS011;4615;51.340;8.288;2023-05-10T15:22:47;12.33;;;10.30;;